sensor_id;sensor_type;location;lat;lon;timestamp;P1;durP1;ratioP1;P2;durP2;ratioP2
38455;SDS011;24237;50.106;20.014;2023-05-24T00:01:33;42.00;;;27.35;;
38455;SDS011;24237;50.106;20.014;2023-05-24T00:04:01;42.22;;;28.30;;
38455;SDS011;24237;50.106;20.014;2023-05-24T00:06:27;38.83;;;26.85;;
38455;SDS011;24237;50.106;20.014;2023-05-24T00:08:53;41.15;;;27.60;;
38455;SDS011;24237;50.106;20.014;2023-05-24T00:11:19;42.97;;;28.63;;
38455;SDS011;24237;50.106;20.014;2023-05-24T00:13:46;49.25;;;28.77;;
38455;SDS011;24237;50.106;20.014;2023-05-24T00:16:12;41.95;;;28.88;;
38455;SDS011;24237;50.106;20.014;2023-05-24T00:18:38;42.10;;;28.05;;
38455;SDS011;24237;50.106;20.014;2023-05-24T00:21:05;42.05;;;27.70;;
38455;SDS011;24237;50.106;20.014;2023-05-24T00:23:34;36.30;;;26.60;;
38455;SDS011;24237;50.106;20.014;2023-05-24T00:26:03;42.67;;;28.48;;
38455;SDS011;24237;50.106;20.014;2023-05-24T00:28:29;43.70;;;30.23;;
38455;SDS011;24237;50.106;20.014;2023-05-24T00:30:55;42.50;;;27.58;;
38455;SDS011;24237;50.106;20.014;2023-05-24T00:33:24;40.72;;;29.15;;
38455;SDS011;24237;50.106;20.014;2023-05-24T00:35:51;46.20;;;30.90;;
38455;SDS011;24237;50.106;20.014;2023-05-24T00:38:20;45.78;;;30.58;;
38455;SDS011;24237;50.106;20.014;2023-05-24T00:40:47;44.05;;;28.80;;
38455;SDS011;24237;50.106;20.014;2023-05-24T00:43:13;43.45;;;30.75;;
38455;SDS011;24237;50.106;20.014;2023-05-24T00:45:39;47.60;;;31.30;;
38455;SDS011;24237;50.106;20.014;2023-05-24T00:48:05;43.33;;;30.15;;
38455;SDS011;24237;50.106;20.014;2023-05-24T00:50:32;45.07;;;30.87;;
38455;SDS011;24237;50.106;20.014;2023-05-24T00:52:58;48.40;;;31.70;;
38455;SDS011;24237;50.106;20.014;2023-05-24T00:55:26;47.33;;;32.13;;
38455;SDS011;24237;50.106;20.014;2023-05-24T00:57:54;52.10;;;31.20;;
38455;SDS011;24237;50.106;20.014;2023-05-24T01:00:21;48.42;;;32.47;;
38455;SDS011;24237;50.106;20.014;2023-05-24T01:02:48;44.05;;;30.35;;
38455;SDS011;24237;50.106;20.014;2023-05-24T01:05:15;46.78;;;32.15;;
38455;SDS011;24237;50.106;20.014;2023-05-24T01:07:58;49.08;;;32.28;;
38455;SDS011;24237;50.106;20.014;2023-05-24T01:10:36;46.97;;;31.60;;
38455;SDS011;24237;50.106;20.014;2023-05-24T01:13:23;47.42;;;30.40;;
38455;SDS011;24237;50.106;20.014;2023-05-24T01:18:46;51.65;;;31.77;;
38455;SDS011;24237;50.106;20.014;2023-05-24T01:24:29;49.33;;;32.58;;
38455;SDS011;24237;50.106;20.014;2023-05-24T01:27:10;51.45;;;31.38;;
38455;SDS011;24237;50.106;20.014;2023-05-24T01:29:37;43.83;;;31.27;;
38455;SDS011;24237;50.106;20.014;2023-05-24T01:32:03;48.90;;;30.90;;
38455;SDS011;24237;50.106;20.014;2023-05-24T01:34:29;47.83;;;31.67;;
38455;SDS011;24237;50.106;20.014;2023-05-24T01:36:55;47.17;;;30.83;;
38455;SDS011;24237;50.106;20.014;2023-05-24T01:39:21;49.60;;;32.78;;
38455;SDS011;24237;50.106;20.014;2023-05-24T01:44:39;47.45;;;31.67;;
38455;SDS011;24237;50.106;20.014;2023-05-24T01:49:37;45.80;;;30.67;;
38455;SDS011;24237;50.106;20.014;2023-05-24T01:52:10;59.50;;;33.53;;
38455;SDS011;24237;50.106;20.014;2023-05-24T01:54:41;50.05;;;31.23;;
38455;SDS011;24237;50.106;20.014;2023-05-24T01:57:09;51.78;;;32.10;;
38455;SDS011;24237;50.106;20.014;2023-05-24T01:59:35;45.42;;;31.60;;
38455;SDS011;24237;50.106;20.014;2023-05-24T02:02:05;54.90;;;33.58;;
38455;SDS011;24237;50.106;20.014;2023-05-24T02:04:31;43.95;;;30.95;;
38455;SDS011;24237;50.106;20.014;2023-05-24T02:06:57;50.05;;;32.80;;
38455;SDS011;24237;50.106;20.014;2023-05-24T02:09:22;51.22;;;31.45;;
38455;SDS011;24237;50.106;20.014;2023-05-24T02:11:48;47.25;;;32.92;;
38455;SDS011;24237;50.106;20.014;2023-05-24T02:14:14;48.38;;;30.42;;
38455;SDS011;24237;50.106;20.014;2023-05-24T02:16:41;49.80;;;32.25;;
38455;SDS011;24237;50.106;20.014;2023-05-24T02:19:10;48.30;;;31.10;;
38455;SDS011;24237;50.106;20.014;2023-05-24T02:21:36;46.20;;;30.95;;
38455;SDS011;24237;50.106;20.014;2023-05-24T02:24:02;46.72;;;31.08;;
38455;SDS011;24237;50.106;20.014;2023-05-24T02:26:28;45.20;;;30.70;;
38455;SDS011;24237;50.106;20.014;2023-05-24T02:28:54;49.50;;;32.13;;
38455;SDS011;24237;50.106;20.014;2023-05-24T02:31:21;48.35;;;29.55;;
38455;SDS011;24237;50.106;20.014;2023-05-24T02:33:46;45.65;;;28.88;;
38455;SDS011;24237;50.106;20.014;2023-05-24T02:36:12;43.03;;;30.15;;
38455;SDS011;24237;50.106;20.014;2023-05-24T02:38:38;44.72;;;28.52;;
38455;SDS011;24237;50.106;20.014;2023-05-24T02:41:04;45.67;;;32.00;;
38455;SDS011;24237;50.106;20.014;2023-05-24T02:43:29;46.75;;;30.73;;
38455;SDS011;24237;50.106;20.014;2023-05-24T02:45:55;47.97;;;32.70;;
38455;SDS011;24237;50.106;20.014;2023-05-24T02:48:21;45.90;;;31.15;;
38455;SDS011;24237;50.106;20.014;2023-05-24T02:50:46;42.85;;;30.00;;
38455;SDS011;24237;50.106;20.014;2023-05-24T02:53:12;49.85;;;31.25;;
38455;SDS011;24237;50.106;20.014;2023-05-24T02:55:38;42.67;;;29.95;;
38455;SDS011;24237;50.106;20.014;2023-05-24T02:58:03;49.85;;;32.35;;
38455;SDS011;24237;50.106;20.014;2023-05-24T03:00:30;45.20;;;31.10;;
38455;SDS011;24237;50.106;20.014;2023-05-24T03:02:55;49.28;;;31.70;;
38455;SDS011;24237;50.106;20.014;2023-05-24T03:05:24;44.67;;;32.78;;
38455;SDS011;24237;50.106;20.014;2023-05-24T03:07:50;46.75;;;32.03;;
38455;SDS011;24237;50.106;20.014;2023-05-24T03:10:15;47.08;;;31.75;;
38455;SDS011;24237;50.106;20.014;2023-05-24T03:12:41;48.60;;;32.05;;
38455;SDS011;24237;50.106;20.014;2023-05-24T03:15:07;44.50;;;31.55;;
38455;SDS011;24237;50.106;20.014;2023-05-24T03:17:33;48.05;;;33.95;;
38455;SDS011;24237;50.106;20.014;2023-05-24T03:19:59;48.67;;;33.83;;
38455;SDS011;24237;50.106;20.014;2023-05-24T03:22:25;50.35;;;32.40;;
38455;SDS011;24237;50.106;20.014;2023-05-24T03:24:50;48.35;;;32.78;;
38455;SDS011;24237;50.106;20.014;2023-05-24T03:27:16;45.45;;;32.65;;
38455;SDS011;24237;50.106;20.014;2023-05-24T03:29:42;45.70;;;31.30;;
38455;SDS011;24237;50.106;20.014;2023-05-24T03:32:07;49.90;;;33.20;;
38455;SDS011;24237;50.106;20.014;2023-05-24T03:34:33;50.60;;;34.05;;
38455;SDS011;24237;50.106;20.014;2023-05-24T03:36:59;45.92;;;31.95;;
38455;SDS011;24237;50.106;20.014;2023-05-24T03:39:24;49.42;;;33.10;;
38455;SDS011;24237;50.106;20.014;2023-05-24T03:41:50;44.45;;;31.50;;
38455;SDS011;24237;50.106;20.014;2023-05-24T03:44:15;49.17;;;31.75;;
38455;SDS011;24237;50.106;20.014;2023-05-24T03:46:41;50.97;;;31.10;;
38455;SDS011;24237;50.106;20.014;2023-05-24T03:49:06;41.75;;;30.25;;
38455;SDS011;24237;50.106;20.014;2023-05-24T03:51:32;46.78;;;31.50;;
38455;SDS011;24237;50.106;20.014;2023-05-24T03:53:58;49.03;;;30.52;;
38455;SDS011;24237;50.106;20.014;2023-05-24T03:56:24;47.00;;;32.80;;
38455;SDS011;24237;50.106;20.014;2023-05-24T03:58:53;45.05;;;30.77;;
38455;SDS011;24237;50.106;20.014;2023-05-24T04:01:19;43.63;;;29.55;;
38455;SDS011;24237;50.106;20.014;2023-05-24T04:03:45;49.05;;;31.90;;
38455;SDS011;24237;50.106;20.014;2023-05-24T04:06:11;46.95;;;29.73;;
38455;SDS011;24237;50.106;20.014;2023-05-24T04:08:37;42.08;;;29.55;;
38455;SDS011;24237;50.106;20.014;2023-05-24T04:11:03;43.20;;;27.90;;
38455;SDS011;24237;50.106;20.014;2023-05-24T04:13:29;44.47;;;31.50;;
38455;SDS011;24237;50.106;20.014;2023-05-24T04:15:55;48.28;;;30.77;;
38455;SDS011;24237;50.106;20.014;2023-05-24T04:18:20;47.75;;;30.00;;
38455;SDS011;24237;50.106;20.014;2023-05-24T04:20:46;43.38;;;29.30;;
38455;SDS011;24237;50.106;20.014;2023-05-24T04:23:12;43.28;;;28.08;;
38455;SDS011;24237;50.106;20.014;2023-05-24T04:25:37;43.35;;;27.48;;
38455;SDS011;24237;50.106;20.014;2023-05-24T04:28:03;41.92;;;27.88;;
38455;SDS011;24237;50.106;20.014;2023-05-24T04:30:30;38.25;;;27.40;;
38455;SDS011;24237;50.106;20.014;2023-05-24T04:32:56;53.88;;;34.97;;
38455;SDS011;24237;50.106;20.014;2023-05-24T04:35:22;41.00;;;27.88;;
38455;SDS011;24237;50.106;20.014;2023-05-24T04:37:49;43.35;;;27.80;;
38455;SDS011;24237;50.106;20.014;2023-05-24T04:40:15;47.75;;;29.13;;
38455;SDS011;24237;50.106;20.014;2023-05-24T04:43:01;45.60;;;29.40;;
38455;SDS011;24237;50.106;20.014;2023-05-24T04:45:26;38.50;;;26.40;;
38455;SDS011;24237;50.106;20.014;2023-05-24T04:47:54;40.60;;;27.95;;
38455;SDS011;24237;50.106;20.014;2023-05-24T04:50:19;54.72;;;34.80;;
38455;SDS011;24237;50.106;20.014;2023-05-24T04:52:45;36.67;;;27.40;;
38455;SDS011;24237;50.106;20.014;2023-05-24T04:55:10;39.45;;;27.50;;
38455;SDS011;24237;50.106;20.014;2023-05-24T04:57:36;36.90;;;26.90;;
38455;SDS011;24237;50.106;20.014;2023-05-24T05:00:02;44.92;;;28.85;;
38455;SDS011;24237;50.106;20.014;2023-05-24T05:02:29;42.25;;;28.90;;
38455;SDS011;24237;50.106;20.014;2023-05-24T05:04:55;42.38;;;29.38;;
38455;SDS011;24237;50.106;20.014;2023-05-24T05:07:20;52.58;;;33.10;;
38455;SDS011;24237;50.106;20.014;2023-05-24T05:09:46;42.25;;;30.27;;
38455;SDS011;24237;50.106;20.014;2023-05-24T05:12:32;41.95;;;29.13;;
38455;SDS011;24237;50.106;20.014;2023-05-24T05:14:57;40.45;;;27.83;;
38455;SDS011;24237;50.106;20.014;2023-05-24T05:17:23;36.92;;;26.67;;
38455;SDS011;24237;50.106;20.014;2023-05-24T05:19:48;42.63;;;27.00;;
38455;SDS011;24237;50.106;20.014;2023-05-24T05:22:14;33.50;;;25.02;;
38455;SDS011;24237;50.106;20.014;2023-05-24T05:24:40;41.00;;;27.85;;
38455;SDS011;24237;50.106;20.014;2023-05-24T05:27:06;40.65;;;27.92;;
38455;SDS011;24237;50.106;20.014;2023-05-24T05:29:31;43.05;;;29.15;;
38455;SDS011;24237;50.106;20.014;2023-05-24T05:31:57;39.38;;;27.75;;
38455;SDS011;24237;50.106;20.014;2023-05-24T05:34:22;41.63;;;27.63;;
38455;SDS011;24237;50.106;20.014;2023-05-24T05:36:48;38.80;;;27.17;;
38455;SDS011;24237;50.106;20.014;2023-05-24T05:39:14;36.80;;;26.90;;
38455;SDS011;24237;50.106;20.014;2023-05-24T05:41:40;43.67;;;28.80;;
38455;SDS011;24237;50.106;20.014;2023-05-24T05:44:10;42.30;;;28.48;;
38455;SDS011;24237;50.106;20.014;2023-05-24T05:46:38;45.05;;;27.83;;
38455;SDS011;24237;50.106;20.014;2023-05-24T05:49:04;40.30;;;28.25;;
38455;SDS011;24237;50.106;20.014;2023-05-24T05:51:30;43.22;;;28.08;;
38455;SDS011;24237;50.106;20.014;2023-05-24T05:53:56;40.90;;;28.10;;
38455;SDS011;24237;50.106;20.014;2023-05-24T05:56:21;43.33;;;26.80;;
38455;SDS011;24237;50.106;20.014;2023-05-24T05:58:47;36.65;;;25.15;;
38455;SDS011;24237;50.106;20.014;2023-05-24T06:01:14;35.97;;;26.55;;
38455;SDS011;24237;50.106;20.014;2023-05-24T06:03:40;39.55;;;26.50;;
38455;SDS011;24237;50.106;20.014;2023-05-24T06:06:06;36.47;;;25.30;;
38455;SDS011;24237;50.106;20.014;2023-05-24T06:08:31;34.28;;;23.95;;
38455;SDS011;24237;50.106;20.014;2023-05-24T06:10:59;37.28;;;24.60;;
38455;SDS011;24237;50.106;20.014;2023-05-24T06:13:25;37.15;;;25.00;;
38455;SDS011;24237;50.106;20.014;2023-05-24T06:15:52;36.57;;;26.07;;
38455;SDS011;24237;50.106;20.014;2023-05-24T06:18:18;36.38;;;25.10;;
38455;SDS011;24237;50.106;20.014;2023-05-24T06:20:45;34.25;;;24.20;;
38455;SDS011;24237;50.106;20.014;2023-05-24T06:23:12;36.70;;;23.55;;
38455;SDS011;24237;50.106;20.014;2023-05-24T06:25:38;37.65;;;23.08;;
38455;SDS011;24237;50.106;20.014;2023-05-24T06:28:04;38.80;;;24.00;;
38455;SDS011;24237;50.106;20.014;2023-05-24T06:30:30;29.52;;;22.92;;
38455;SDS011;24237;50.106;20.014;2023-05-24T06:32:57;38.67;;;24.60;;
38455;SDS011;24237;50.106;20.014;2023-05-24T06:35:23;27.42;;;21.20;;
38455;SDS011;24237;50.106;20.014;2023-05-24T06:37:48;36.63;;;22.98;;
38455;SDS011;24237;50.106;20.014;2023-05-24T06:40:14;30.77;;;21.42;;
38455;SDS011;24237;50.106;20.014;2023-05-24T06:42:40;32.20;;;22.52;;
38455;SDS011;24237;50.106;20.014;2023-05-24T06:45:06;33.40;;;21.65;;
38455;SDS011;24237;50.106;20.014;2023-05-24T06:47:32;34.15;;;21.35;;
38455;SDS011;24237;50.106;20.014;2023-05-24T06:49:58;26.17;;;19.95;;
38455;SDS011;24237;50.106;20.014;2023-05-24T06:52:24;27.00;;;20.58;;
38455;SDS011;24237;50.106;20.014;2023-05-24T06:54:50;30.08;;;21.90;;
38455;SDS011;24237;50.106;20.014;2023-05-24T06:57:16;52.00;;;35.75;;
38455;SDS011;24237;50.106;20.014;2023-05-24T06:59:42;29.60;;;21.13;;
38455;SDS011;24237;50.106;20.014;2023-05-24T07:02:07;32.65;;;19.77;;
38455;SDS011;24237;50.106;20.014;2023-05-24T07:04:36;30.67;;;20.45;;
38455;SDS011;24237;50.106;20.014;2023-05-24T07:07:01;33.03;;;20.83;;
38455;SDS011;24237;50.106;20.014;2023-05-24T07:09:27;29.35;;;21.33;;
38455;SDS011;24237;50.106;20.014;2023-05-24T07:11:53;28.58;;;20.95;;
38455;SDS011;24237;50.106;20.014;2023-05-24T07:14:18;29.42;;;20.77;;
38455;SDS011;24237;50.106;20.014;2023-05-24T07:16:47;28.05;;;20.08;;
38455;SDS011;24237;50.106;20.014;2023-05-24T07:19:12;29.20;;;21.17;;
38455;SDS011;24237;50.106;20.014;2023-05-24T07:21:38;29.77;;;20.77;;
38455;SDS011;24237;50.106;20.014;2023-05-24T07:24:05;27.77;;;19.05;;
38455;SDS011;24237;50.106;20.014;2023-05-24T07:26:30;28.30;;;19.27;;
38455;SDS011;24237;50.106;20.014;2023-05-24T07:28:56;30.58;;;20.30;;
38455;SDS011;24237;50.106;20.014;2023-05-24T07:31:22;28.33;;;20.23;;
38455;SDS011;24237;50.106;20.014;2023-05-24T07:33:47;26.38;;;19.52;;
38455;SDS011;24237;50.106;20.014;2023-05-24T07:36:13;36.67;;;20.58;;
38455;SDS011;24237;50.106;20.014;2023-05-24T07:38:40;27.83;;;20.20;;
38455;SDS011;24237;50.106;20.014;2023-05-24T07:41:05;31.33;;;19.75;;
38455;SDS011;24237;50.106;20.014;2023-05-24T07:43:31;35.53;;;21.15;;
38455;SDS011;24237;50.106;20.014;2023-05-24T07:45:57;28.10;;;19.55;;
38455;SDS011;24237;50.106;20.014;2023-05-24T07:48:23;27.08;;;19.08;;
38455;SDS011;24237;50.106;20.014;2023-05-24T07:50:49;27.40;;;18.55;;
38455;SDS011;24237;50.106;20.014;2023-05-24T07:53:16;31.23;;;20.15;;
38455;SDS011;24237;50.106;20.014;2023-05-24T07:55:42;31.73;;;18.05;;
38455;SDS011;24237;50.106;20.014;2023-05-24T07:58:11;29.33;;;19.50;;
38455;SDS011;24237;50.106;20.014;2023-05-24T08:00:36;30.77;;;21.55;;
38455;SDS011;24237;50.106;20.014;2023-05-24T08:03:03;30.45;;;18.85;;
38455;SDS011;24237;50.106;20.014;2023-05-24T08:05:29;30.98;;;19.83;;
38455;SDS011;24237;50.106;20.014;2023-05-24T08:07:55;30.23;;;19.13;;
38455;SDS011;24237;50.106;20.014;2023-05-24T08:10:21;29.20;;;18.75;;
38455;SDS011;24237;50.106;20.014;2023-05-24T08:12:47;31.70;;;22.83;;
38455;SDS011;24237;50.106;20.014;2023-05-24T08:15:15;35.33;;;24.00;;
38455;SDS011;24237;50.106;20.014;2023-05-24T08:17:41;35.92;;;24.52;;
38455;SDS011;24237;50.106;20.014;2023-05-24T08:20:07;40.00;;;26.33;;
38455;SDS011;24237;50.106;20.014;2023-05-24T08:22:40;47.08;;;28.30;;
38455;SDS011;24237;50.106;20.014;2023-05-24T08:25:06;45.08;;;27.42;;
38455;SDS011;24237;50.106;20.014;2023-05-24T08:27:32;47.65;;;28.27;;
38455;SDS011;24237;50.106;20.014;2023-05-24T08:29:58;47.22;;;28.20;;
38455;SDS011;24237;50.106;20.014;2023-05-24T08:32:23;46.28;;;29.05;;
38455;SDS011;24237;50.106;20.014;2023-05-24T08:34:49;56.40;;;30.83;;
38455;SDS011;24237;50.106;20.014;2023-05-24T08:37:15;52.47;;;30.92;;
38455;SDS011;24237;50.106;20.014;2023-05-24T08:39:44;51.58;;;30.45;;
38455;SDS011;24237;50.106;20.014;2023-05-24T08:42:10;52.85;;;30.08;;
38455;SDS011;24237;50.106;20.014;2023-05-24T08:44:40;55.03;;;29.83;;
38455;SDS011;24237;50.106;20.014;2023-05-24T08:47:26;47.60;;;29.27;;
38455;SDS011;24237;50.106;20.014;2023-05-24T08:49:54;42.15;;;26.05;;
38455;SDS011;24237;50.106;20.014;2023-05-24T08:52:21;48.13;;;28.60;;
38455;SDS011;24237;50.106;20.014;2023-05-24T08:54:48;46.10;;;28.13;;
38455;SDS011;24237;50.106;20.014;2023-05-24T08:57:14;40.92;;;23.80;;
38455;SDS011;24237;50.106;20.014;2023-05-24T08:59:40;42.35;;;22.27;;
38455;SDS011;24237;50.106;20.014;2023-05-24T09:02:08;37.75;;;21.25;;
38455;SDS011;24237;50.106;20.014;2023-05-24T09:04:38;35.50;;;19.38;;
38455;SDS011;24237;50.106;20.014;2023-05-24T09:07:04;29.45;;;17.80;;
38455;SDS011;24237;50.106;20.014;2023-05-24T09:11:58;22.17;;;13.75;;
38455;SDS011;24237;50.106;20.014;2023-05-24T09:14:28;25.08;;;15.18;;
38455;SDS011;24237;50.106;20.014;2023-05-24T09:16:55;19.90;;;11.02;;
38455;SDS011;24237;50.106;20.014;2023-05-24T09:19:21;20.63;;;12.70;;
38455;SDS011;24237;50.106;20.014;2023-05-24T09:21:48;14.73;;;10.23;;
38455;SDS011;24237;50.106;20.014;2023-05-24T09:24:13;15.75;;;9.93;;
38455;SDS011;24237;50.106;20.014;2023-05-24T09:26:39;15.90;;;9.15;;
38455;SDS011;24237;50.106;20.014;2023-05-24T09:29:06;17.27;;;9.07;;
38455;SDS011;24237;50.106;20.014;2023-05-24T09:31:33;19.00;;;9.73;;
38455;SDS011;24237;50.106;20.014;2023-05-24T09:34:00;13.80;;;8.07;;
38455;SDS011;24237;50.106;20.014;2023-05-24T09:36:26;13.30;;;8.43;;
38455;SDS011;24237;50.106;20.014;2023-05-24T09:39:06;14.68;;;8.23;;
38455;SDS011;24237;50.106;20.014;2023-05-24T09:41:33;17.63;;;8.52;;
38455;SDS011;24237;50.106;20.014;2023-05-24T09:44:00;13.23;;;8.38;;
38455;SDS011;24237;50.106;20.014;2023-05-24T09:48:57;12.30;;;7.13;;
38455;SDS011;24237;50.106;20.014;2023-05-24T09:51:23;12.15;;;7.68;;
38455;SDS011;24237;50.106;20.014;2023-05-24T09:53:50;13.40;;;7.70;;
38455;SDS011;24237;50.106;20.014;2023-05-24T09:56:18;12.38;;;8.07;;
38455;SDS011;24237;50.106;20.014;2023-05-24T09:58:44;15.43;;;8.95;;
38455;SDS011;24237;50.106;20.014;2023-05-24T10:01:10;17.75;;;8.63;;
38455;SDS011;24237;50.106;20.014;2023-05-24T10:03:37;14.75;;;9.38;;
38455;SDS011;24237;50.106;20.014;2023-05-24T10:06:09;15.68;;;9.25;;
38455;SDS011;24237;50.106;20.014;2023-05-24T10:08:37;18.58;;;12.00;;
38455;SDS011;24237;50.106;20.014;2023-05-24T10:11:04;21.48;;;13.48;;
38455;SDS011;24237;50.106;20.014;2023-05-24T10:13:31;19.20;;;13.25;;
38455;SDS011;24237;50.106;20.014;2023-05-24T10:15:59;24.90;;;15.45;;
38455;SDS011;24237;50.106;20.014;2023-05-24T10:18:25;25.60;;;16.02;;
38455;SDS011;24237;50.106;20.014;2023-05-24T10:20:51;25.08;;;17.55;;
38455;SDS011;24237;50.106;20.014;2023-05-24T10:23:21;30.20;;;17.20;;
38455;SDS011;24237;50.106;20.014;2023-05-24T10:25:50;27.67;;;17.98;;
38455;SDS011;24237;50.106;20.014;2023-05-24T10:28:20;32.47;;;17.20;;
38455;SDS011;24237;50.106;20.014;2023-05-24T10:33:16;25.38;;;16.73;;
38455;SDS011;24237;50.106;20.014;2023-05-24T10:35:43;34.72;;;18.60;;
38455;SDS011;24237;50.106;20.014;2023-05-24T10:38:10;31.67;;;20.63;;
38455;SDS011;24237;50.106;20.014;2023-05-24T10:40:39;31.17;;;20.05;;
38455;SDS011;24237;50.106;20.014;2023-05-24T10:43:06;36.15;;;19.67;;
38455;SDS011;24237;50.106;20.014;2023-05-24T10:45:33;29.13;;;18.80;;
38455;SDS011;24237;50.106;20.014;2023-05-24T10:50:34;33.65;;;20.40;;
38455;SDS011;24237;50.106;20.014;2023-05-24T10:53:16;36.38;;;21.48;;
38455;SDS011;24237;50.106;20.014;2023-05-24T10:55:56;37.90;;;21.15;;
38455;SDS011;24237;50.106;20.014;2023-05-24T11:00:58;36.10;;;21.80;;
38455;SDS011;24237;50.106;20.014;2023-05-24T11:03:23;38.47;;;21.63;;
38455;SDS011;24237;50.106;20.014;2023-05-24T11:05:52;40.92;;;22.60;;
38455;SDS011;24237;50.106;20.014;2023-05-24T11:08:22;39.67;;;21.85;;
38455;SDS011;24237;50.106;20.014;2023-05-24T11:11:02;34.70;;;21.80;;
38455;SDS011;24237;50.106;20.014;2023-05-24T11:13:35;36.53;;;20.92;;
38455;SDS011;24237;50.106;20.014;2023-05-24T11:16:02;37.85;;;21.90;;
38455;SDS011;24237;50.106;20.014;2023-05-24T11:18:29;41.67;;;21.13;;
38455;SDS011;24237;50.106;20.014;2023-05-24T11:20:55;43.97;;;23.67;;
38455;SDS011;24237;50.106;20.014;2023-05-24T11:23:23;39.08;;;20.85;;
38455;SDS011;24237;50.106;20.014;2023-05-24T11:25:49;45.63;;;22.65;;
38455;SDS011;24237;50.106;20.014;2023-05-24T11:28:16;38.58;;;21.52;;
38455;SDS011;24237;50.106;20.014;2023-05-24T11:30:43;40.17;;;20.95;;
38455;SDS011;24237;50.106;20.014;2023-05-24T11:35:40;42.35;;;22.58;;
38455;SDS011;24237;50.106;20.014;2023-05-24T11:38:15;40.42;;;21.75;;
38455;SDS011;24237;50.106;20.014;2023-05-24T11:40:42;40.00;;;21.38;;
38455;SDS011;24237;50.106;20.014;2023-05-24T11:43:10;38.47;;;21.42;;
38455;SDS011;24237;50.106;20.014;2023-05-24T11:45:48;36.25;;;21.20;;
38455;SDS011;24237;50.106;20.014;2023-05-24T11:48:15;41.03;;;21.75;;
38455;SDS011;24237;50.106;20.014;2023-05-24T11:50:42;40.33;;;21.77;;
38455;SDS011;24237;50.106;20.014;2023-05-24T11:53:09;34.63;;;19.63;;
38455;SDS011;24237;50.106;20.014;2023-05-24T11:55:36;48.03;;;22.08;;
38455;SDS011;24237;50.106;20.014;2023-05-24T11:58:05;40.42;;;22.73;;
38455;SDS011;24237;50.106;20.014;2023-05-24T12:00:35;40.58;;;22.38;;
38455;SDS011;24237;50.106;20.014;2023-05-24T12:03:02;39.45;;;22.00;;
38455;SDS011;24237;50.106;20.014;2023-05-24T12:05:31;39.60;;;23.35;;
38455;SDS011;24237;50.106;20.014;2023-05-24T12:08:04;37.50;;;22.83;;
38455;SDS011;24237;50.106;20.014;2023-05-24T12:10:31;43.95;;;23.88;;
38455;SDS011;24237;50.106;20.014;2023-05-24T12:12:58;43.55;;;23.27;;
38455;SDS011;24237;50.106;20.014;2023-05-24T12:15:24;44.28;;;23.67;;
38455;SDS011;24237;50.106;20.014;2023-05-24T12:17:50;41.03;;;23.58;;
38455;SDS011;24237;50.106;20.014;2023-05-24T12:20:17;43.30;;;25.02;;
38455;SDS011;24237;50.106;20.014;2023-05-24T12:22:50;43.22;;;24.00;;
38455;SDS011;24237;50.106;20.014;2023-05-24T12:25:21;43.72;;;24.10;;
38455;SDS011;24237;50.106;20.014;2023-05-24T12:27:54;39.10;;;22.52;;
38455;SDS011;24237;50.106;20.014;2023-05-24T12:30:24;43.35;;;24.92;;
38455;SDS011;24237;50.106;20.014;2023-05-24T12:32:51;38.45;;;23.33;;
38455;SDS011;24237;50.106;20.014;2023-05-24T12:35:19;42.55;;;24.80;;
38455;SDS011;24237;50.106;20.014;2023-05-24T12:37:45;37.17;;;23.70;;
38455;SDS011;24237;50.106;20.014;2023-05-24T12:42:42;43.65;;;25.10;;
38455;SDS011;24237;50.106;20.014;2023-05-24T12:45:09;41.65;;;23.45;;
38455;SDS011;24237;50.106;20.014;2023-05-24T12:47:36;34.97;;;21.93;;
38455;SDS011;24237;50.106;20.014;2023-05-24T12:50:02;40.15;;;22.63;;
38455;SDS011;24237;50.106;20.014;2023-05-24T12:52:27;43.20;;;23.08;;
38455;SDS011;24237;50.106;20.014;2023-05-24T12:54:53;37.47;;;23.23;;
38455;SDS011;24237;50.106;20.014;2023-05-24T12:57:18;37.85;;;21.70;;
38455;SDS011;24237;50.106;20.014;2023-05-24T12:59:44;41.70;;;21.42;;
38455;SDS011;24237;50.106;20.014;2023-05-24T13:02:11;35.07;;;21.93;;
38455;SDS011;24237;50.106;20.014;2023-05-24T13:04:37;35.72;;;21.15;;
38455;SDS011;24237;50.106;20.014;2023-05-24T13:07:03;31.70;;;21.05;;
38455;SDS011;24237;50.106;20.014;2023-05-24T13:09:28;40.20;;;23.77;;
38455;SDS011;24237;50.106;20.014;2023-05-24T13:11:54;34.03;;;21.02;;
38455;SDS011;24237;50.106;20.014;2023-05-24T13:14:20;41.97;;;22.77;;
38455;SDS011;24237;50.106;20.014;2023-05-24T13:16:45;36.75;;;22.08;;
38455;SDS011;24237;50.106;20.014;2023-05-24T13:19:11;37.38;;;23.35;;
38455;SDS011;24237;50.106;20.014;2023-05-24T13:21:37;38.83;;;23.15;;
38455;SDS011;24237;50.106;20.014;2023-05-24T13:24:03;42.17;;;21.60;;
38455;SDS011;24237;50.106;20.014;2023-05-24T13:26:30;34.35;;;22.63;;
38455;SDS011;24237;50.106;20.014;2023-05-24T13:29:01;40.67;;;22.15;;
38455;SDS011;24237;50.106;20.014;2023-05-24T13:31:27;36.88;;;21.73;;
38455;SDS011;24237;50.106;20.014;2023-05-24T13:33:53;37.25;;;22.48;;
38455;SDS011;24237;50.106;20.014;2023-05-24T13:36:18;41.28;;;23.23;;
38455;SDS011;24237;50.106;20.014;2023-05-24T13:38:44;41.83;;;21.48;;
38455;SDS011;24237;50.106;20.014;2023-05-24T13:41:10;38.00;;;22.50;;
38455;SDS011;24237;50.106;20.014;2023-05-24T13:43:35;46.75;;;21.95;;
38455;SDS011;24237;50.106;20.014;2023-05-24T13:46:01;51.60;;;24.30;;
38455;SDS011;24237;50.106;20.014;2023-05-24T13:48:27;33.28;;;20.40;;
38455;SDS011;24237;50.106;20.014;2023-05-24T13:50:53;39.63;;;24.00;;
38455;SDS011;24237;50.106;20.014;2023-05-24T13:53:18;32.10;;;21.42;;
38455;SDS011;24237;50.106;20.014;2023-05-24T13:55:46;39.80;;;20.70;;
38455;SDS011;24237;50.106;20.014;2023-05-24T13:58:11;37.17;;;20.33;;
38455;SDS011;24237;50.106;20.014;2023-05-24T14:00:37;37.15;;;21.77;;
38455;SDS011;24237;50.106;20.014;2023-05-24T14:03:02;32.72;;;21.25;;
38455;SDS011;24237;50.106;20.014;2023-05-24T14:05:29;35.45;;;20.88;;
38455;SDS011;24237;50.106;20.014;2023-05-24T14:07:56;32.03;;;20.17;;
38455;SDS011;24237;50.106;20.014;2023-05-24T14:10:24;27.63;;;18.02;;
38455;SDS011;24237;50.106;20.014;2023-05-24T14:12:50;35.95;;;19.27;;
38455;SDS011;24237;50.106;20.014;2023-05-24T14:15:15;26.98;;;19.05;;
38455;SDS011;24237;50.106;20.014;2023-05-24T14:17:41;26.65;;;18.80;;
38455;SDS011;24237;50.106;20.014;2023-05-24T14:20:07;28.85;;;18.38;;
38455;SDS011;24237;50.106;20.014;2023-05-24T14:22:33;28.25;;;16.88;;
38455;SDS011;24237;50.106;20.014;2023-05-24T14:24:58;25.15;;;17.35;;
38455;SDS011;24237;50.106;20.014;2023-05-24T14:27:24;28.52;;;18.13;;
38455;SDS011;24237;50.106;20.014;2023-05-24T14:29:49;26.25;;;17.75;;
38455;SDS011;24237;50.106;20.014;2023-05-24T14:32:15;27.60;;;18.15;;
38455;SDS011;24237;50.106;20.014;2023-05-24T14:34:41;28.17;;;17.98;;
38455;SDS011;24237;50.106;20.014;2023-05-24T14:37:07;25.48;;;17.80;;